Time;durP1;ratioP1;P1;durP2;ratioP2;P2;SDS_P1;SDS_P2;PMS_P1;PMS_P2;Temp;Humidity;BMP_temperature;BMP_pressure;BME280_temperature;BME280_humidity;BME280_pressure;Samples;Min_cycle;Max_cycle;Signal;HPM_P1;HPM_P2
2023/04/09 00:02:04;;;;;;;115.43;57.38;;;;;;;19.94;71.13;98997.41;4945956;29;20110;-59
2023/04/09 00:04:34;;;;;;;120.50;58.65;;;;;;;20.12;70.49;99005.22;4947708;28;20043;-56
2023/04/09 00:07:03;;;;;;;117.43;60.42;;;;;;;20.05;69.80;99013.44;4945489;29;20302;-56
2023/04/09 00:09:33;;;;;;;127.35;60.95;;;;;;;19.84;70.77;99016.03;4946412;29;20051;-54
2023/04/09 00:12:02;;;;;;;114.57;59.67;;;;;;;19.94;71.41;99011.66;4934547;29;20150;-60
2023/04/09 00:14:31;;;;;;;124.20;61.78;;;;;;;20.10;71.19;99018.88;4941999;28;20555;-59
2023/04/09 00:17:01;;;;;;;111.88;61.30;;;;;;;20.07;70.55;99023.94;4942026;29;20077;-59
2023/04/09 00:19:32;;;;;;;123.03;62.13;;;;;;;19.98;70.69;99017.34;4945617;29;20066;-59
2023/04/09 00:22:01;;;;;;;117.88;62.28;;;;;;;19.98;71.06;99017.34;4943330;29;20074;-59
2023/04/09 00:24:30;;;;;;;130.60;63.08;;;;;;;19.98;71.08;99014.66;4942584;29;20051;-58
2023/04/09 00:27:02;;;;;;;136.23;63.47;;;;;;;19.94;70.90;99021.59;4937964;29;20062;-59
2023/04/09 00:29:32;;;;;;;123.97;64.93;;;;;;;19.95;71.44;99028.59;4943524;29;20047;-59
2023/04/09 00:32:02;;;;;;;119.50;64.70;;;;;;;19.92;71.98;99029.88;4943523;29;20054;-57
2023/04/09 00:34:31;;;;;;;120.45;64.18;;;;;;;19.86;72.28;99041.66;4944862;29;20063;-59
2023/04/09 00:37:01;;;;;;;123.60;65.05;;;;;;;19.92;72.07;99042.53;4945227;29;20142;-59
2023/04/09 00:39:31;;;;;;;129.15;64.35;;;;;;;19.92;72.30;99042.53;4926292;29;20186;-59
2023/04/09 00:42:04;;;;;;;119.03;65.80;;;;;;;19.83;72.29;99036.72;4945149;29;20058;-59
2023/04/09 00:44:33;;;;;;;;;;;;;;;19.99;72.21;99048.56;4930991;28;20047;-59
2023/04/09 00:47:03;;;;;;;132.32;64.82;;;;;;;19.85;71.97;99049.94;4925854;29;19965;-60
2023/04/09 00:49:33;;;;;;;133.60;64.57;;;;;;;19.82;72.51;99047.75;4924421;29;20047;-61
2023/04/09 00:52:03;;;;;;;124.50;65.95;;;;;;;19.85;72.22;99040.00;4943348;29;20062;-60
2023/04/09 00:54:32;;;;;;;123.18;63.08;;;;;;;19.86;72.10;99054.25;4945479;29;20074;-59
2023/04/09 00:57:03;;;;;;;123.32;65.60;;;;;;;19.94;71.66;99051.97;4944568;29;20058;-59
2023/04/09 00:59:34;;;;;;;130.25;68.47;;;;;;;19.94;71.78;99046.59;4926411;29;20075;-59
2023/04/09 01:02:04;;;;;;;132.07;71.18;;;;;;;19.96;71.61;99043.69;4940342;28;20058;-60
2023/04/09 01:04:35;;;;;;;136.40;70.03;;;;;;;19.97;71.27;99046.09;4928200;29;20142;-59
2023/04/09 01:07:11;;;;;;;141.88;71.65;;;;;;;19.96;70.85;99054.44;4928381;29;20114;-60
2023/04/09 01:09:50;;;;;;;132.98;68.75;;;;;;;20.01;71.70;99049.13;4953832;28;20058;-59
2023/04/09 01:12:42;;;;;;;136.30;68.15;;;;;;;20.05;71.75;99051.06;4936282;29;20054;-58
2023/04/09 01:15:18;;;;;;;133.10;68.65;;;;;;;20.09;72.09;99048.72;4928254;29;20061;-59
2023/04/09 01:18:01;;;;;;;138.57;70.70;;;;;;;20.22;71.04;99059.16;4921828;29;20103;-60
2023/04/09 01:20:40;;;;;;;144.02;72.18;;;;;;;20.23;70.79;99060.75;4909600;29;20058;-60
2023/04/09 01:23:15;;;;;;;136.48;71.35;;;;;;;20.35;71.41;99069.59;4940393;28;20039;-59
2023/04/09 01:26:02;;;;;;;142.15;73.40;;;;;;;20.40;71.35;99076.94;4945055;28;20039;-59
2023/04/09 01:28:50;;;;;;;138.18;73.78;;;;;;;20.42;71.54;99070.22;4938448;29;20050;-59
2023/04/09 01:31:30;;;;;;;137.68;73.30;;;;;;;20.51;71.92;99071.44;4944978;28;20047;-60
2023/04/09 01:34:01;;;;;;;132.98;72.45;;;;;;;20.62;71.04;99077.78;4945977;28;20043;-59
2023/04/09 01:36:33;;;;;;;145.82;74.72;;;;;;;20.72;71.64;99085.16;4952488;28;20064;-59
2023/04/09 01:39:02;;;;;;;146.90;78.00;;;;;;;20.77;71.24;99093.31;4941154;29;20138;-60
2023/04/09 01:41:34;;;;;;;145.57;77.57;;;;;;;20.87;70.92;99094.28;4945025;28;20474;-61
2023/04/09 01:44:06;;;;;;;158.40;76.82;;;;;;;20.99;70.91;99084.19;4937590;29;20063;-60
2023/04/09 01:46:38;;;;;;;142.55;79.43;;;;;;;21.02;71.48;99089.06;4945439;29;20063;-59
2023/04/09 01:49:09;;;;;;;142.35;77.55;;;;;;;21.09;71.02;99096.97;4944955;28;20151;-59
2023/04/09 01:51:39;;;;;;;147.77;79.35;;;;;;;21.26;70.52;99097.75;4944578;29;20090;-57
2023/04/09 01:54:08;;;;;;;150.23;83.78;;;;;;;21.38;69.75;99100.31;4945414;29;20460;-61
2023/04/09 01:56:46;;;;;;;157.48;80.95;;;;;;;21.54;69.51;99106.69;4926564;29;20159;-59
2023/04/09 01:59:15;;;;;;;157.40;82.03;;;;;;;21.62;70.08;99108.94;4928770;29;20732;-60
2023/04/09 02:01:51;;;;;;;142.35;80.55;;;;;;;21.78;69.81;99103.41;4919425;29;20058;-59
2023/04/09 02:04:30;;;;;;;148.50;79.88;;;;;;;22.01;69.95;99107.72;4947348;29;20255;-59
2023/04/09 02:07:10;;;;;;;141.13;80.65;;;;;;;22.15;69.01;99108.09;4948546;28;20158;-59
2023/04/09 02:09:41;;;;;;;147.25;79.45;;;;;;;22.40;68.56;99116.38;4935982;28;20044;-60
2023/04/09 02:12:13;;;;;;;159.55;82.82;;;;;;;22.71;67.66;99120.94;4916032;29;20058;-59
2023/04/09 02:14:46;;;;;;;146.48;81.65;;;;;;;23.39;64.74;99121.00;4912664;29;20151;-59
2023/04/09 02:17:15;;;;;;;148.20;81.28;;;;;;;24.49;61.54;99127.69;4912456;29;20063;-59
2023/04/09 02:19:46;;;;;;;146.02;81.03;;;;;;;25.37;60.10;99134.25;4929578;29;20058;-58
2023/04/09 02:22:17;;;;;;;134.90;78.88;;;;;;;26.10;56.18;99141.72;4919856;29;20044;-59
2023/04/09 02:24:46;;;;;;;148.93;80.60;;;;;;;26.77;55.02;99130.84;4921053;29;20098;-57
2023/04/09 02:27:16;;;;;;;144.10;79.57;;;;;;;27.29;53.42;99141.97;4938294;29;20158;-58
2023/04/09 02:29:45;;;;;;;134.88;79.00;;;;;;;27.73;51.69;99144.44;4947923;29;20057;-60
2023/04/09 02:32:15;;;;;;;128.05;77.38;;;;;;;28.04;50.40;99148.31;4947343;29;20051;-58
2023/04/09 02:34:44;;;;;;;135.07;78.93;;;;;;;28.11;50.04;99146.06;4947271;29;20051;-58
2023/04/09 02:37:14;;;;;;;134.20;77.03;;;;;;;28.26;50.08;99155.91;4930663;29;20051;-58
2023/04/09 02:39:44;;;;;;;127.50;73.88;;;;;;;28.22;49.34;99158.41;4948494;29;20057;-58
2023/04/09 02:42:13;;;;;;;130.25;75.03;;;;;;;28.13;48.73;99154.75;4949861;28;20531;-59
2023/04/09 02:44:43;;;;;;;131.18;71.35;;;;;;;27.85;49.32;99163.84;4947837;29;20051;-59
2023/04/09 02:47:14;;;;;;;109.43;68.05;;;;;;;27.72;51.47;99164.56;4954499;28;20451;-59
2023/04/09 02:49:43;;;;;;;108.82;66.13;;;;;;;27.52;50.98;99169.22;4948251;28;20047;-59
2023/04/09 02:52:13;;;;;;;98.95;62.00;;;;;;;27.27;51.54;99177.63;4926996;29;20066;-59
2023/04/09 02:54:42;;;;;;;85.25;55.00;;;;;;;26.94;51.35;99178.53;4945785;29;20138;-59
2023/04/09 02:57:11;;;;;;;90.25;51.78;;;;;;;26.74;52.03;99182.22;4930922;29;20047;-58
2023/04/09 02:59:41;;;;;;;75.47;48.13;;;;;;;26.52;51.67;99192.75;4945751;28;20074;-59
2023/04/09 03:02:11;;;;;;;68.88;44.40;;;;;;;26.40;52.78;99197.75;4936216;29;20146;-60
2023/04/09 03:04:41;;;;;;;65.25;40.38;;;;;;;26.28;52.31;99200.84;4938780;28;20055;-58
2023/04/09 03:07:11;;;;;;;64.18;38.05;;;;;;;26.03;51.33;99203.66;4932285;29;20051;-59
2023/04/09 03:09:40;;;;;;;66.40;37.33;;;;;;;26.10;52.71;99198.75;4951800;28;20066;-59
2023/04/09 03:12:11;;;;;;;59.78;34.47;;;;;;;26.09;51.34;99206.09;4943227;29;20055;-59
2023/04/09 03:14:40;;;;;;;59.35;34.35;;;;;;;26.10;52.02;99209.59;4940514;29;20059;-59
2023/04/09 03:17:10;;;;;;;56.90;33.78;;;;;;;26.15;51.70;99210.41;4946800;29;20043;-58
2023/04/09 03:19:39;;;;;;;53.88;33.75;;;;;;;26.12;51.24;99212.84;4935620;29;20063;-57
2023/04/09 03:22:09;;;;;;;62.20;36.13;;;;;;;26.16;50.31;99213.91;4932567;29;20054;-59
2023/04/09 03:24:38;;;;;;;65.82;36.20;;;;;;;26.23;48.82;99215.25;4946595;29;20120;-60
2023/04/09 03:27:08;;;;;;;63.00;38.05;;;;;;;26.38;50.92;99214.31;4947071;29;20559;-58
2023/04/09 03:29:37;;;;;;;63.50;40.50;;;;;;;26.38;51.87;99215.13;4930471;29;20530;-59
2023/04/09 03:32:07;;;;;;;64.72;39.60;;;;;;;26.30;50.99;99218.47;4924497;29;20047;-59
2023/04/09 03:34:36;;;;;;;74.63;39.47;;;;;;;26.32;48.66;99226.34;4928750;29;20055;-58
2023/04/09 03:37:06;;;;;;;70.85;38.65;;;;;;;26.33;48.28;99226.03;4895290;29;20048;-58
2023/04/09 03:39:35;;;;;;;72.00;40.63;;;;;;;26.37;47.29;99226.31;4946644;28;20129;-58
2023/04/09 03:42:04;;;;;;;76.38;43.72;;;;;;;26.44;43.86;99226.78;4929884;29;20051;-58
2023/04/09 03:44:43;;;;;;;76.55;44.13;;;;;;;26.51;47.34;99227.25;4920695;29;20526;-58
2023/04/09 03:47:17;;;;;;;91.20;47.78;;;;;;;26.46;44.01;99227.31;4945397;28;20126;-59
2023/04/09 03:49:47;;;;;;;85.03;46.30;;;;;;;26.52;45.09;99233.50;4926689;29;20087;-60
2023/04/09 03:52:24;;;;;;;69.75;40.05;;;;;;;26.59;41.67;99232.09;4926406;29;20058;-59
2023/04/09 03:55:04;;;;;;;68.13;34.97;;;;;;;26.67;40.99;99242.38;4925877;29;20043;-60
2023/04/09 03:57:34;;;;;;;59.85;30.52;;;;;;;26.67;42.67;99238.84;4929284;29;20122;-60
2023/04/09 04:00:08;;;;;;;47.67;24.33;;;;;;;26.63;41.04;99241.31;4917604;29;20048;-61
2023/04/09 04:02:57;;;;;;;43.03;21.95;;;;;;;26.62;40.49;99252.47;4934989;28;20067;-59
2023/04/09 04:05:53;;;;;;;29.45;17.10;;;;;;;26.61;41.69;99248.91;4960175;28;20561;-58
2023/04/09 04:08:22;;;;;;;29.85;14.43;;;;;;;26.73;38.05;99243.94;4956747;28;20058;-59
2023/04/09 04:10:51;;;;;;;25.65;10.90;;;;;;;26.92;39.76;99248.69;4946643;28;20055;-59
2023/04/09 04:13:21;;;;;;;20.08;10.80;;;;;;;26.89;41.54;99249.28;4925192;29;20059;-60
2023/04/09 04:15:55;;;;;;;17.65;7.75;;;;;;;26.91;39.74;99247.09;4929919;29;20382;-60
2023/04/09 04:18:25;;;;;;;18.13;8.35;;;;;;;26.94;39.55;99255.50;4926061;29;20391;-59
2023/04/09 04:20:54;;;;;;;21.88;9.85;;;;;;;27.03;39.63;99258.41;4922568;29;20138;-60
2023/04/09 04:23:24;;;;;;;20.10;10.85;;;;;;;27.02;40.76;99257.59;4940657;29;20050;-60
2023/04/09 04:26:11;;;;;;;18.38;10.20;;;;;;;27.13;37.42;99247.44;4940979;28;20146;-59
2023/04/09 04:28:41;;;;;;;27.15;10.45;;;;;;;27.37;36.57;99256.41;4950796;28;20058;-58
2023/04/09 04:31:16;;;;;;;19.33;10.38;;;;;;;27.49;40.73;99248.69;4960914;28;20054;-60
2023/04/09 04:33:45;;;;;;;22.65;12.38;;;;;;;27.63;40.56;99249.59;4946628;28;20050;-59
2023/04/09 04:36:15;;;;;;;18.90;9.57;;;;;;;28.28;34.18;99249.84;4935108;29;20039;-60
2023/04/09 04:38:48;;;;;;;26.60;10.50;;;;;;;29.05;34.87;99254.91;4925679;29;20146;-61
2023/04/09 04:41:34;;;;;;;17.73;8.13;;;;;;;29.39;33.66;99256.22;4925384;29;20666;-60
2023/04/09 04:44:19;;;;;;;20.40;9.40;;;;;;;30.33;33.32;99256.44;4940389;29;20066;-60
2023/04/09 04:46:53;;;;;;;14.80;7.90;;;;;;;30.86;32.70;99255.75;4928788;29;20047;-57
2023/04/09 04:49:22;;;;;;;13.20;6.35;;;;;;;31.20;28.49;99253.22;4945275;28;20074;-57
2023/04/09 04:51:52;;;;;;;18.60;7.35;;;;;;;31.33;32.62;99251.53;4945585;28;20048;-57
2023/04/09 04:54:21;;;;;;;18.25;6.97;;;;;;;31.43;29.95;99253.16;4929245;29;20593;-54
2023/04/09 04:56:55;;;;;;;18.45;6.80;;;;;;;31.54;29.67;99246.28;4928803;29;20051;-57
2023/04/09 04:59:41;;;;;;;15.18;5.18;;;;;;;32.01;27.47;99245.47;4943117;29;20066;-59
2023/04/09 05:02:12;;;;;;;16.17;5.47;;;;;;;31.94;23.84;99242.41;4926114;29;20074;-58
2023/04/09 05:05:05;;;;;;;10.57;5.75;;;;;;;32.63;26.75;99234.25;4597449;29;10000374;-58
2023/04/09 05:07:42;;;;;;;19.73;5.78;;;;;;;33.05;25.97;99232.56;4584076;29;10000302;-59
2023/04/09 05:10:11;;;;;;;20.00;5.55;;;;;;;32.70;30.18;99229.09;4942036;29;20047;-58
2023/04/09 05:12:42;;;;;;;8.25;4.45;;;;;;;32.60;24.70;99228.59;4923497;29;20122;-59
2023/04/09 05:15:18;;;;;;;14.20;4.30;;;;;;;32.67;23.46;99224.25;4926216;29;20075;-59
2023/04/09 05:17:48;;;;;;;13.40;4.05;;;;;;;33.10;26.44;99226.91;4924938;29;20059;-60
2023/04/09 05:20:18;;;;;;;11.15;4.00;;;;;;;32.79;25.15;99221.66;4943630;29;20051;-59
2023/04/09 05:23:09;;;;;;;8.73;3.85;;;;;;;32.93;23.63;99224.19;4942209;29;20070;-60
2023/04/09 05:25:47;;;;;;;13.70;6.07;;;;;;;32.93;26.00;99222.25;4934230;29;20163;-59
2023/04/09 05:28:42;;;;;;;24.65;5.15;;;;;;;33.29;24.05;99223.78;4921785;29;20253;-60
2023/04/09 05:31:16;;;;;;;9.98;3.58;;;;;;;33.05;22.11;99218.84;4926665;29;20456;-59
2023/04/09 05:33:53;;;;;;;8.95;3.35;;;;;;;33.48;25.41;99218.69;4928403;29;20074;-58
2023/04/09 05:36:33;;;;;;;14.40;4.05;;;;;;;33.75;24.13;99218.25;4922022;29;20552;-59
2023/04/09 05:39:03;;;;;;;14.25;3.60;;;;;;;33.70;25.11;99212.94;4921952;29;20419;-59
2023/04/09 05:41:32;;;;;;;7.95;3.55;;;;;;;33.71;27.49;99213.75;4925458;29;20051;-59
2023/04/09 05:44:30;;;;;;;9.70;3.70;;;;;;;33.91;25.28;99206.66;4908554;29;20074;-57
2023/04/09 05:47:07;;;;;;;14.13;4.10;;;;;;;33.79;25.56;99210.94;4942747;29;20127;-57
2023/04/09 05:49:44;;;;;;;9.70;3.70;;;;;;;34.07;26.19;99204.94;4915342;29;20052;-58
2023/04/09 05:52:16;;;;;;;11.73;4.95;;;;;;;34.14;24.04;99205.19;4933431;28;20594;-59
2023/04/09 05:54:46;;;;;;;9.73;4.20;;;;;;;34.38;25.99;99205.34;4947021;28;20071;-56
2023/04/09 05:57:21;;;;;;;7.88;3.35;;;;;;;33.94;24.03;99200.50;4921686;29;20611;-58
2023/04/09 05:59:57;;;;;;;9.23;3.65;;;;;;;33.85;24.18;99197.81;4937935;29;20043;-56
2023/04/09 06:02:27;;;;;;;7.45;3.72;;;;;;;33.99;25.78;99197.56;4941508;28;20169;-57
2023/04/09 06:04:57;;;;;;;9.75;2.75;;;;;;;33.66;21.47;99194.69;4943147;28;20055;-57
2023/04/09 06:07:26;;;;;;;12.73;2.92;;;;;;;33.83;23.52;99195.41;4936604;29;20047;-61
2023/04/09 06:09:57;;;;;;;10.98;3.35;;;;;;;33.39;21.37;99190.44;4944290;29;20059;-56
2023/04/09 06:12:27;;;;;;;30.73;4.45;;;;;;;33.32;22.82;99188.25;4922460;29;20538;-58
2023/04/09 06:14:57;;;;;;;10.90;3.10;;;;;;;33.21;22.68;99194.41;4935282;29;20051;-59
2023/04/09 06:17:28;;;;;;;9.02;2.95;;;;;;;32.95;19.26;99183.50;4944443;29;20673;-58
2023/04/09 06:19:58;;;;;;;8.52;3.03;;;;;;;33.44;25.68;99189.47;4944937;29;20082;-59
2023/04/09 06:22:27;;;;;;;8.38;3.03;;;;;;;33.52;22.24;99186.66;4945167;28;20162;-58
2023/04/09 06:24:56;;;;;;;8.38;3.30;;;;;;;33.59;21.45;99181.44;4932631;29;20047;-62
2023/04/09 06:27:26;;;;;;;8.05;3.80;;;;;;;33.57;25.21;99178.25;4943750;29;20057;-62
2023/04/09 06:29:57;;;;;;;11.10;3.50;;;;;;;33.57;22.54;99178.25;4943443;29;20058;-63
2023/04/09 06:32:29;;;;;;;9.82;3.65;;;;;;;33.87;26.23;99175.47;4934476;29;20142;-65
2023/04/09 06:35:07;;;;;;;11.68;4.40;;;;;;;33.59;26.13;99178.69;4942997;28;20764;-63
2023/04/09 06:37:38;;;;;;;9.40;3.13;;;;;;;33.35;24.75;99162.03;4938952;29;20055;-63
2023/04/09 06:40:08;;;;;;;9.00;4.15;;;;;;;33.44;24.23;99168.28;4941647;29;20641;-63
2023/04/09 06:42:38;;;;;;;9.15;3.00;;;;;;;32.97;20.41;99157.31;4941528;28;20534;-63
2023/04/09 06:45:19;;;;;;;9.60;3.10;;;;;;;33.15;22.25;99160.84;4942598;29;20059;-58
2023/04/09 06:47:49;;;;;;;6.28;2.95;;;;;;;33.26;19.31;99155.78;4942549;29;20447;-58
2023/04/09 06:50:19;;;;;;;11.25;3.05;;;;;;;33.28;25.84;99162.53;4931691;28;20507;-55
2023/04/09 06:52:50;;;;;;;8.13;3.70;;;;;;;32.98;23.36;99147.97;4944896;28;20055;-60
2023/04/09 06:55:19;;;;;;;8.30;3.95;;;;;;;33.34;23.82;99149.44;4941191;28;20057;-51
2023/04/09 06:57:49;;;;;;;9.65;3.90;;;;;;;33.28;24.57;99159.81;4942329;29;20480;-57
2023/04/09 07:00:21;;;;;;;11.95;3.78;;;;;;;33.20;24.01;99148.88;4935128;29;20095;-61
2023/04/09 07:02:52;;;;;;;7.38;3.13;;;;;;;33.42;24.65;99146.66;4945527;28;20051;-57
2023/04/09 07:05:23;;;;;;;10.63;3.33;;;;;;;33.51;22.33;99138.34;4945627;29;20062;-59
2023/04/09 07:07:52;;;;;;;8.57;3.63;;;;;;;33.62;25.63;99139.59;4948067;29;20051;-59
2023/04/09 07:10:25;;;;;;;9.63;4.00;;;;;;;33.47;24.08;99139.34;4937772;29;20059;-60
2023/04/09 07:12:54;;;;;;;11.98;3.17;;;;;;;33.25;18.36;99137.69;4947816;29;20399;-66
2023/04/09 07:15:24;;;;;;;5.90;3.20;;;;;;;32.63;18.84;99135.50;4925388;28;20053;-61
2023/04/09 07:17:53;;;;;;;7.00;3.03;;;;;;;32.80;19.03;99127.22;4948107;28;20062;-60
2023/04/09 07:20:23;;;;;;;9.70;3.63;;;;;;;33.06;21.44;99115.34;4931124;29;20139;-60
2023/04/09 07:22:52;;;;;;;9.15;3.00;;;;;;;33.03;20.79;99114.03;4948325;28;20047;-61
2023/04/09 07:25:22;;;;;;;16.63;3.10;;;;;;;33.19;21.34;99109.66;4935214;29;20067;-61
2023/04/09 07:27:51;;;;;;;7.03;2.88;;;;;;;33.26;19.51;99109.09;4948090;29;20047;-61
2023/04/09 07:30:20;;;;;;;8.35;3.05;;;;;;;33.00;18.31;99106.47;4947069;29;20065;-61
2023/04/09 07:32:50;;;;;;;5.68;2.95;;;;;;;33.12;20.35;99089.28;4940796;29;20809;-60
2023/04/09 07:35:20;;;;;;;8.20;3.00;;;;;;;33.19;22.99;99089.63;4945638;28;20653;-62
2023/04/09 07:37:50;;;;;;;8.75;2.80;;;;;;;33.26;22.67;99082.47;4947744;29;20070;-59
2023/04/09 07:40:20;;;;;;;7.85;3.30;;;;;;;33.32;22.48;99083.06;4947120;28;20048;-61
2023/04/09 07:42:49;;;;;;;11.02;3.63;;;;;;;33.11;20.04;99076.69;4935638;28;20058;-61
2023/04/09 07:45:19;;;;;;;10.80;2.55;;;;;;;33.36;22.54;99075.78;4945668;28;20115;-59
2023/04/09 07:47:49;;;;;;;7.28;2.92;;;;;;;33.38;21.56;99078.97;4945541;29;20148;-61
2023/04/09 07:50:18;;;;;;;8.70;2.83;;;;;;;33.39;20.71;99064.13;4946649;28;20509;-60
2023/04/09 07:52:48;;;;;;;7.18;3.03;;;;;;;33.00;19.64;99067.25;4923977;29;20036;-59
2023/04/09 07:55:17;;;;;;;8.25;3.70;;;;;;;33.22;20.88;99058.75;4931571;29;20427;-58
2023/04/09 07:57:47;;;;;;;11.68;4.35;;;;;;;33.33;22.03;99060.75;4946156;29;20051;-61
2023/04/09 08:00:18;;;;;;;12.00;4.50;;;;;;;33.00;22.11;99061.75;4929723;29;20044;-59
2023/04/09 08:02:47;;;;;;;12.45;3.95;;;;;;;32.88;20.19;99054.22;4941996;29;20051;-60
2023/04/09 08:05:17;;;;;;;12.45;3.47;;;;;;;32.31;18.98;99046.34;4947222;28;20635;-58
2023/04/09 08:07:46;;;;;;;16.10;4.20;;;;;;;32.33;19.48;99046.00;4946194;29;20126;-59
2023/04/09 08:10:16;;;;;;;10.57;3.92;;;;;;;32.04;18.44;99043.97;4944456;28;20039;-61
2023/04/09 08:12:47;;;;;;;7.65;4.07;;;;;;;31.97;21.82;99035.41;4946782;28;20047;-61
2023/04/09 08:15:18;;;;;;;9.30;4.00;;;;;;;32.06;21.07;99030.72;4925709;29;20485;-62
2023/04/09 08:17:48;;;;;;;13.07;4.00;;;;;;;32.13;20.11;99027.53;4928908;29;20069;-60
2023/04/09 08:20:18;;;;;;;7.38;4.30;;;;;;;32.06;18.58;99026.06;4928676;29;20078;-62
2023/04/09 08:22:48;;;;;;;10.45;4.50;;;;;;;32.01;21.93;99019.94;4942023;28;20158;-62
2023/04/09 08:25:19;;;;;;;16.00;5.47;;;;;;;31.94;19.99;99014.97;4925431;29;20055;-61
2023/04/09 08:27:49;;;;;;;11.00;4.88;;;;;;;31.97;22.31;99008.81;4945574;29;20573;-60
2023/04/09 08:30:18;;;;;;;11.10;5.30;;;;;;;32.04;22.03;98998.16;4943400;29;20059;-61
2023/04/09 08:32:48;;;;;;;14.20;4.97;;;;;;;32.00;23.96;98999.94;4942754;29;20722;-64
2023/04/09 08:35:18;;;;;;;17.77;5.95;;;;;;;32.15;23.20;98997.84;4938763;29;20720;-63
2023/04/09 08:37:48;;;;;;;13.15;5.57;;;;;;;32.22;22.83;98987.19;4944477;29;20759;-63
2023/04/09 08:40:18;;;;;;;15.80;5.05;;;;;;;32.23;23.01;98992.34;4943674;29;20148;-68
2023/04/09 08:42:55;;;;;;;13.85;5.40;;;;;;;32.14;20.61;98988.00;4940183;28;20047;-62
2023/04/09 08:45:25;;;;;;;8.10;4.40;;;;;;;32.12;20.62;98982.06;4943500;29;20055;-60
2023/04/09 08:47:58;;;;;;;10.07;4.55;;;;;;;32.11;24.75;98985.94;4944889;28;20066;-64
2023/04/09 08:50:32;;;;;;;13.45;4.75;;;;;;;31.97;23.89;98986.91;4945134;29;20901;-60
2023/04/09 08:53:04;;;;;;;8.10;4.72;;;;;;;31.95;24.12;98972.75;4942913;28;20122;-62
2023/04/09 08:55:36;;;;;;;10.40;4.50;;;;;;;31.86;24.05;98965.66;4943373;29;20059;-59
2023/04/09 08:58:11;;;;;;;12.18;5.82;;;;;;;31.60;25.68;98962.97;4923797;29;20039;-62
2023/04/09 09:00:41;;;;;;;13.07;4.80;;;;;;;31.45;24.96;98963.44;4932015;28;20053;-63
2023/04/09 09:03:11;;;;;;;12.73;6.32;;;;;;;31.54;24.60;98965.03;4923350;29;20132;-64
2023/04/09 09:05:43;;;;;;;10.63;4.88;;;;;;;31.73;25.62;98956.50;4941235;28;20558;-63
2023/04/09 09:08:33;;;;;;;15.90;4.75;;;;;;;31.75;22.61;98954.22;4944268;29;20252;-63
2023/04/09 09:11:03;;;;;;;11.07;4.03;;;;;;;31.76;23.53;98942.16;4941547;28;20055;-66
2023/04/09 09:13:32;;;;;;;10.55;3.78;;;;;;;31.73;25.99;98942.81;4945293;29;20063;-61
2023/04/09 09:16:15;;;;;;;12.57;4.50;;;;;;;31.78;24.83;98948.09;4944268;28;20666;-61
2023/04/09 09:18:45;;;;;;;14.30;5.15;;;;;;;31.53;26.93;98940.72;4943301;28;20130;-60
2023/04/09 09:21:16;;;;;;;10.77;5.00;;;;;;;31.13;26.53;98934.59;4944837;28;20051;-60
2023/04/09 09:23:47;;;;;;;12.48;4.82;;;;;;;30.88;24.59;98927.16;4941556;29;20059;-60
2023/04/09 09:26:26;;;;;;;10.25;5.03;;;;;;;30.82;25.48;98912.81;4943340;28;20047;-61
2023/04/09 09:28:57;;;;;;;9.77;4.03;;;;;;;30.75;26.13;98916.06;4946538;28;20061;-64
2023/04/09 09:31:27;;;;;;;11.77;4.32;;;;;;;30.58;29.02;98918.72;4935267;28;20071;-62
2023/04/09 09:33:59;;;;;;;11.00;4.15;;;;;;;31.00;22.91;98908.16;4943736;28;20050;-62
2023/04/09 09:36:31;;;;;;;11.80;4.23;;;;;;;30.97;26.70;98908.81;4944947;29;20046;-63
2023/04/09 09:39:08;;;;;;;13.52;4.00;;;;;;;31.07;25.31;98903.06;4945036;29;20661;-63
2023/04/09 09:41:42;;;;;;;11.25;3.88;;;;;;;31.06;25.88;98905.00;4943995;29;20067;-62
2023/04/09 09:44:29;;;;;;;8.85;4.22;;;;;;;31.16;26.87;98901.13;4944380;28;20054;-62
2023/04/09 09:47:02;;;;;;;8.88;4.07;;;;;;;30.80;26.81;98901.41;4937511;28;20069;-63
2023/04/09 09:49:32;;;;;;;;;;;;;;;30.88;25.46;98888.88;4936943;28;20138;-66
2023/04/09 09:52:06;;;;;;;12.20;4.18;;;;;;;30.82;26.01;98885.47;4942330;29;19933;-64
2023/04/09 09:54:47;;;;;;;11.27;3.38;;;;;;;30.85;25.93;98882.09;4945115;28;20066;-67
2023/04/09 09:57:19;;;;;;;9.68;3.92;;;;;;;31.02;24.63;98884.06;4945641;28;20055;-62
2023/04/09 10:00:00;;;;;;;13.10;4.50;;;;;;;30.87;27.43;98879.84;4943271;29;20043;-63
2023/04/09 10:02:53;;;;;;;9.68;3.50;;;;;;;30.71;26.09;98874.03;4944427;28;20071;-61
2023/04/09 10:05:26;;;;;;;16.42;4.35;;;;;;;30.71;26.05;98870.50;4944449;28;20051;-61
2023/04/09 10:07:59;;;;;;;9.40;3.75;;;;;;;30.52;28.77;98875.47;4940569;29;20043;-61
2023/04/09 10:10:51;;;;;;;12.38;4.10;;;;;;;30.45;26.89;98861.47;4936385;29;20058;-59
2023/04/09 10:13:42;;;;;;;10.82;3.85;;;;;;;30.28;26.97;98860.25;4942409;28;20059;-61
2023/04/09 10:16:13;;;;;;;17.10;4.43;;;;;;;30.21;25.80;98854.47;4942348;28;20055;-64
2023/04/09 10:18:43;;;;;;;13.50;3.97;;;;;;;30.46;24.56;98849.38;4945062;28;20059;-64
2023/04/09 10:21:26;;;;;;;7.38;3.75;;;;;;;30.71;24.84;98843.94;4944917;29;20751;-62
2023/04/09 10:23:57;;;;;;;7.78;4.18;;;;;;;30.87;24.27;98838.00;4949945;28;20150;-62
2023/04/09 10:26:29;;;;;;;8.32;3.80;;;;;;;30.65;28.22;98837.03;4944137;29;20503;-62
2023/04/09 10:29:13;;;;;;;7.45;4.15;;;;;;;30.56;25.00;98838.16;4944557;28;20511;-61
2023/04/09 10:32:05;;;;;;;9.50;3.92;;;;;;;30.73;25.17;98827.22;4944510;28;20039;-62
2023/04/09 10:34:39;;;;;;;10.18;3.63;;;;;;;30.77;22.94;98825.44;4930910;29;20507;-64
2023/04/09 10:37:13;;;;;;;8.45;3.63;;;;;;;30.60;25.17;98814.50;4945797;28;20046;-63
2023/04/09 10:39:48;;;;;;;6.85;3.70;;;;;;;30.37;27.14;98818.47;4953248;28;20606;-62
2023/04/09 10:42:23;;;;;;;6.57;3.33;;;;;;;30.18;28.41;98819.56;4937735;29;20069;-66
2023/04/09 10:45:22;;;;;;;11.15;3.40;;;;;;;30.07;28.05;98810.06;4945375;29;20043;-65
2023/04/09 10:47:53;;;;;;;9.52;3.53;;;;;;;29.92;27.32;98804.25;4922233;29;20054;-64
2023/04/09 10:50:28;;;;;;;7.10;3.50;;;;;;;29.88;27.23;98804.03;4945315;29;20463;-61
2023/04/09 10:52:59;;;;;;;8.07;4.10;;;;;;;29.78;27.38;98793.41;4945281;29;20135;-61
2023/04/09 10:55:36;;;;;;;13.38;4.50;;;;;;;29.62;27.29;98789.47;4945900;29;20638;-63
2023/04/09 10:58:07;;;;;;;8.95;4.00;;;;;;;29.66;27.04;98784.97;4946163;29;20079;-62
2023/04/09 11:00:42;;;;;;;7.03;4.13;;;;;;;29.59;24.77;98784.63;4945619;28;20158;-62
2023/04/09 11:03:27;;;;;;;11.25;4.40;;;;;;;29.56;21.59;98779.81;4928222;29;20052;-63
2023/04/09 11:06:08;;;;;;;10.38;4.00;;;;;;;29.72;27.23;98781.81;4944799;29;20047;-61
2023/04/09 11:08:40;;;;;;;13.52;4.10;;;;;;;29.43;26.12;98776.06;4940305;28;20055;-59
2023/04/09 11:11:10;;;;;;;7.80;4.80;;;;;;;29.68;23.70;98774.56;4942320;29;20055;-61
2023/04/09 11:13:41;;;;;;;9.05;4.00;;;;;;;29.72;26.77;98776.34;4942936;29;20145;-61
2023/04/09 11:16:11;;;;;;;14.40;4.85;;;;;;;29.71;26.52;98771.19;4943022;29;20090;-60
2023/04/09 11:18:55;;;;;;;9.38;4.57;;;;;;;29.63;26.63;98763.78;4940540;29;20047;-62
2023/04/09 11:21:27;;;;;;;15.93;4.43;;;;;;;29.62;26.87;98767.63;4928849;29;20061;-61
2023/04/09 11:23:57;;;;;;;;;;;;;;;29.71;23.01;98768.47;4929123;29;20051;-59
2023/04/09 11:26:35;;;;;;;13.77;4.88;;;;;;;29.72;24.75;98754.50;4946434;29;20469;-61
2023/04/09 11:29:07;;;;;;;11.48;5.35;;;;;;;29.76;24.91;98758.22;4942950;28;20047;-60
2023/04/09 11:31:37;;;;;;;13.33;5.20;;;;;;;29.86;24.58;98760.66;4939417;29;20122;-60
2023/04/09 11:34:11;;;;;;;8.20;4.50;;;;;;;29.77;26.10;98754.34;4946322;29;20072;-60
2023/04/09 11:36:41;;;;;;;14.68;5.40;;;;;;;29.68;26.52;98755.44;4940369;29;20062;-61
2023/04/09 11:39:11;;;;;;;9.40;4.68;;;;;;;29.61;25.55;98752.38;4945833;29;20047;-61
2023/04/09 11:41:40;;;;;;;11.40;5.30;;;;;;;29.62;26.11;98754.78;4927435;29;20081;-59
2023/04/09 11:44:10;;;;;;;15.98;5.60;;;;;;;29.56;26.48;98755.25;4939603;29;20069;-61
2023/04/09 11:46:41;;;;;;;12.38;4.93;;;;;;;29.41;26.45;98754.53;4942532;29;20057;-61
2023/04/09 11:49:12;;;;;;;10.93;5.00;;;;;;;29.27;26.45;98751.06;4942877;29;20043;-58